sensor_id;sensor_type;location;lat;lon;timestamp;P1;durP1;ratioP1;P2;durP2;ratioP2
57718;SDS011;43561;50.090;18.522;2023-08-17T00:04:49;11.43;;;9.75;;
57718;SDS011;43561;50.090;18.522;2023-08-17T00:14:51;10.77;;;8.73;;
57718;SDS011;43561;50.090;18.522;2023-08-17T00:24:53;19.50;;;10.07;;
57718;SDS011;43561;50.090;18.522;2023-08-17T00:34:55;18.27;;;11.35;;
57718;SDS011;43561;50.090;18.522;2023-08-17T00:44:57;9.90;;;8.95;;
57718;SDS011;43561;50.090;18.522;2023-08-17T00:55:00;13.98;;;9.40;;
57718;SDS011;43561;50.090;18.522;2023-08-17T01:05:04;11.32;;;10.13;;
57718;SDS011;43561;50.090;18.522;2023-08-17T01:15:19;12.35;;;9.35;;
57718;SDS011;43561;50.090;18.522;2023-08-17T01:25:31;10.27;;;9.18;;
57718;SDS011;43561;50.090;18.522;2023-08-17T01:35:46;10.35;;;8.85;;
57718;SDS011;43561;50.090;18.522;2023-08-17T01:45:56;9.65;;;8.57;;
57718;SDS011;43561;50.090;18.522;2023-08-17T01:55:58;11.75;;;9.88;;
57718;SDS011;43561;50.090;18.522;2023-08-17T02:06:00;11.85;;;9.45;;
57718;SDS011;43561;50.090;18.522;2023-08-17T02:16:02;12.65;;;10.32;;
57718;SDS011;43561;50.090;18.522;2023-08-17T02:26:06;12.30;;;10.50;;
57718;SDS011;43561;50.090;18.522;2023-08-17T02:36:08;15.90;;;11.68;;
57718;SDS011;43561;50.090;18.522;2023-08-17T02:46:10;14.02;;;11.50;;
57718;SDS011;43561;50.090;18.522;2023-08-17T02:56:13;12.95;;;11.07;;
57718;SDS011;43561;50.090;18.522;2023-08-17T03:06:15;15.23;;;13.30;;
57718;SDS011;43561;50.090;18.522;2023-08-17T03:16:17;17.10;;;15.40;;
57718;SDS011;43561;50.090;18.522;2023-08-17T03:26:19;15.80;;;13.95;;
57718;SDS011;43561;50.090;18.522;2023-08-17T03:36:21;23.05;;;13.88;;
57718;SDS011;43561;50.090;18.522;2023-08-17T03:46:23;18.00;;;15.38;;
57718;SDS011;43561;50.090;18.522;2023-08-17T03:56:25;16.88;;;14.32;;
57718;SDS011;43561;50.090;18.522;2023-08-17T04:06:27;23.40;;;16.00;;
57718;SDS011;43561;50.090;18.522;2023-08-17T04:16:29;20.00;;;16.20;;
57718;SDS011;43561;50.090;18.522;2023-08-17T04:26:33;21.40;;;18.42;;
57718;SDS011;43561;50.090;18.522;2023-08-17T04:36:35;25.67;;;21.40;;
57718;SDS011;43561;50.090;18.522;2023-08-17T04:46:39;22.17;;;17.73;;
57718;SDS011;43561;50.090;18.522;2023-08-17T04:56:42;23.77;;;15.23;;
57718;SDS011;43561;50.090;18.522;2023-08-17T05:06:44;20.00;;;15.45;;
57718;SDS011;43561;50.090;18.522;2023-08-17T05:16:46;20.45;;;17.42;;
57718;SDS011;43561;50.090;18.522;2023-08-17T05:26:48;27.70;;;18.67;;
57718;SDS011;43561;50.090;18.522;2023-08-17T05:36:50;41.78;;;26.20;;
57718;SDS011;43561;50.090;18.522;2023-08-17T05:46:52;22.30;;;17.35;;
57718;SDS011;43561;50.090;18.522;2023-08-17T05:56:54;19.67;;;16.48;;
57718;SDS011;43561;50.090;18.522;2023-08-17T06:06:56;22.13;;;15.70;;
57718;SDS011;43561;50.090;18.522;2023-08-17T06:16:58;15.77;;;14.02;;
57718;SDS011;43561;50.090;18.522;2023-08-17T06:27:00;17.52;;;15.05;;
57718;SDS011;43561;50.090;18.522;2023-08-17T06:37:02;18.42;;;15.27;;
57718;SDS011;43561;50.090;18.522;2023-08-17T06:47:05;17.98;;;15.45;;
57718;SDS011;43561;50.090;18.522;2023-08-17T06:57:07;23.00;;;15.80;;
57718;SDS011;43561;50.090;18.522;2023-08-17T07:07:09;21.77;;;15.57;;
57718;SDS011;43561;50.090;18.522;2023-08-17T07:17:11;18.88;;;15.77;;
57718;SDS011;43561;50.090;18.522;2023-08-17T07:27:13;24.38;;;16.80;;
57718;SDS011;43561;50.090;18.522;2023-08-17T07:37:15;21.52;;;17.15;;
57718;SDS011;43561;50.090;18.522;2023-08-17T07:47:17;19.40;;;17.35;;
57718;SDS011;43561;50.090;18.522;2023-08-17T07:57:21;23.45;;;17.67;;
57718;SDS011;43561;50.090;18.522;2023-08-17T08:07:26;20.25;;;17.13;;
57718;SDS011;43561;50.090;18.522;2023-08-17T08:17:29;22.48;;;17.98;;
57718;SDS011;43561;50.090;18.522;2023-08-17T08:27:45;24.83;;;20.13;;
57718;SDS011;43561;50.090;18.522;2023-08-17T08:37:47;25.48;;;19.90;;
57718;SDS011;43561;50.090;18.522;2023-08-17T08:47:50;26.30;;;18.38;;
57718;SDS011;43561;50.090;18.522;2023-08-17T08:57:53;21.40;;;18.92;;
57718;SDS011;43561;50.090;18.522;2023-08-17T09:08:00;22.58;;;20.27;;
57718;SDS011;43561;50.090;18.522;2023-08-17T09:18:05;21.42;;;19.00;;
57718;SDS011;43561;50.090;18.522;2023-08-17T09:28:17;19.75;;;17.58;;
57718;SDS011;43561;50.090;18.522;2023-08-17T09:38:20;17.45;;;15.48;;
57718;SDS011;43561;50.090;18.522;2023-08-17T09:48:22;20.92;;;16.23;;
57718;SDS011;43561;50.090;18.522;2023-08-17T09:58:27;17.02;;;15.05;;
57718;SDS011;43561;50.090;18.522;2023-08-17T10:08:33;18.10;;;15.40;;
57718;SDS011;43561;50.090;18.522;2023-08-17T10:19:05;20.77;;;16.52;;
57718;SDS011;43561;50.090;18.522;2023-08-17T10:29:13;52.97;;;30.20;;
57718;SDS011;43561;50.090;18.522;2023-08-17T10:39:19;21.08;;;17.60;;
57718;SDS011;43561;50.090;18.522;2023-08-17T10:49:25;18.30;;;14.63;;
57718;SDS011;43561;50.090;18.522;2023-08-17T10:59:28;14.70;;;13.18;;
57718;SDS011;43561;50.090;18.522;2023-08-17T11:09:30;17.35;;;15.65;;
57718;SDS011;43561;50.090;18.522;2023-08-17T11:19:32;16.10;;;14.35;;
57718;SDS011;43561;50.090;18.522;2023-08-17T11:29:34;16.40;;;14.63;;
57718;SDS011;43561;50.090;18.522;2023-08-17T11:39:36;16.65;;;14.93;;
57718;SDS011;43561;50.090;18.522;2023-08-17T11:49:39;23.13;;;16.13;;
57718;SDS011;43561;50.090;18.522;2023-08-17T11:59:43;16.23;;;14.02;;
57718;SDS011;43561;50.090;18.522;2023-08-17T12:09:51;13.77;;;11.48;;
57718;SDS011;43561;50.090;18.522;2023-08-17T12:20:00;18.75;;;14.20;;
57718;SDS011;43561;50.090;18.522;2023-08-17T12:30:02;18.60;;;10.57;;
57718;SDS011;43561;50.090;18.522;2023-08-17T12:40:04;14.18;;;10.35;;
57718;SDS011;43561;50.090;18.522;2023-08-17T12:50:09;12.10;;;9.68;;
57718;SDS011;43561;50.090;18.522;2023-08-17T13:00:22;15.75;;;10.85;;
57718;SDS011;43561;50.090;18.522;2023-08-17T13:10:24;11.15;;;7.68;;
57718;SDS011;43561;50.090;18.522;2023-08-17T13:20:26;14.73;;;8.75;;
57718;SDS011;43561;50.090;18.522;2023-08-17T13:30:29;7.82;;;7.05;;
57718;SDS011;43561;50.090;18.522;2023-08-17T13:40:31;17.70;;;7.82;;
57718;SDS011;43561;50.090;18.522;2023-08-17T13:50:34;12.05;;;7.70;;
57718;SDS011;43561;50.090;18.522;2023-08-17T14:00:38;12.13;;;7.47;;
57718;SDS011;43561;50.090;18.522;2023-08-17T14:10:40;24.17;;;15.77;;
57718;SDS011;43561;50.090;18.522;2023-08-17T14:20:42;17.50;;;12.20;;
57718;SDS011;43561;50.090;18.522;2023-08-17T14:30:44;13.60;;;10.95;;
57718;SDS011;43561;50.090;18.522;2023-08-17T14:40:52;14.88;;;10.05;;
57718;SDS011;43561;50.090;18.522;2023-08-17T14:50:54;14.95;;;10.45;;
57718;SDS011;43561;50.090;18.522;2023-08-17T15:00:57;12.07;;;9.55;;
57718;SDS011;43561;50.090;18.522;2023-08-17T15:10:59;10.50;;;9.40;;
57718;SDS011;43561;50.090;18.522;2023-08-17T15:21:02;16.05;;;9.23;;
57718;SDS011;43561;50.090;18.522;2023-08-17T15:31:04;10.52;;;9.43;;
57718;SDS011;43561;50.090;18.522;2023-08-17T15:41:06;10.77;;;8.63;;
57718;SDS011;43561;50.090;18.522;2023-08-17T15:51:08;10.98;;;9.98;;
57718;SDS011;43561;50.090;18.522;2023-08-17T16:01:10;14.25;;;10.82;;
57718;SDS011;43561;50.090;18.522;2023-08-17T16:11:12;23.60;;;15.23;;
57718;SDS011;43561;50.090;18.522;2023-08-17T16:21:14;20.00;;;13.82;;
57718;SDS011;43561;50.090;18.522;2023-08-17T16:31:16;21.52;;;17.50;;
57718;SDS011;43561;50.090;18.522;2023-08-17T16:41:18;23.55;;;18.50;;
57718;SDS011;43561;50.090;18.522;2023-08-17T16:51:20;22.83;;;18.58;;
57718;SDS011;43561;50.090;18.522;2023-08-17T17:01:22;23.00;;;19.63;;
57718;SDS011;43561;50.090;18.522;2023-08-17T17:11:25;30.05;;;21.52;;
57718;SDS011;43561;50.090;18.522;2023-08-17T17:21:27;23.20;;;19.33;;
57718;SDS011;43561;50.090;18.522;2023-08-17T17:31:29;30.33;;;20.30;;
57718;SDS011;43561;50.090;18.522;2023-08-17T17:41:31;52.92;;;31.88;;
57718;SDS011;43561;50.090;18.522;2023-08-17T17:51:35;26.38;;;19.92;;
57718;SDS011;43561;50.090;18.522;2023-08-17T18:01:37;25.70;;;18.30;;
57718;SDS011;43561;50.090;18.522;2023-08-17T18:11:39;26.10;;;18.80;;
57718;SDS011;43561;50.090;18.522;2023-08-17T18:21:42;29.58;;;20.65;;
57718;SDS011;43561;50.090;18.522;2023-08-17T18:31:44;25.45;;;19.38;;
57718;SDS011;43561;50.090;18.522;2023-08-17T18:41:46;31.08;;;21.65;;
57718;SDS011;43561;50.090;18.522;2023-08-17T18:51:48;25.80;;;18.65;;
57718;SDS011;43561;50.090;18.522;2023-08-17T19:01:51;21.40;;;17.30;;
57718;SDS011;43561;50.090;18.522;2023-08-17T19:11:53;24.05;;;17.58;;
57718;SDS011;43561;50.090;18.522;2023-08-17T19:21:55;25.50;;;17.77;;
57718;SDS011;43561;50.090;18.522;2023-08-17T19:31:57;24.83;;;17.67;;
57718;SDS011;43561;50.090;18.522;2023-08-17T19:42:00;26.27;;;16.90;;
57718;SDS011;43561;50.090;18.522;2023-08-17T19:52:03;21.42;;;18.33;;
57718;SDS011;43561;50.090;18.522;2023-08-17T20:02:05;26.85;;;20.50;;
57718;SDS011;43561;50.090;18.522;2023-08-17T20:12:07;27.27;;;18.63;;
57718;SDS011;43561;50.090;18.522;2023-08-17T20:22:09;21.75;;;17.95;;
57718;SDS011;43561;50.090;18.522;2023-08-17T20:32:11;27.88;;;19.33;;
57718;SDS011;43561;50.090;18.522;2023-08-17T20:42:13;15.75;;;14.00;;
57718;SDS011;43561;50.090;18.522;2023-08-17T20:52:15;19.50;;;13.80;;
57718;SDS011;43561;50.090;18.522;2023-08-17T21:02:17;18.20;;;12.63;;
57718;SDS011;43561;50.090;18.522;2023-08-17T21:12:19;15.18;;;13.50;;
57718;SDS011;43561;50.090;18.522;2023-08-17T21:22:21;16.17;;;13.98;;
57718;SDS011;43561;50.090;18.522;2023-08-17T21:32:23;16.17;;;13.65;;
57718;SDS011;43561;50.090;18.522;2023-08-17T21:42:25;14.77;;;12.68;;
57718;SDS011;43561;50.090;18.522;2023-08-17T21:52:27;24.88;;;15.52;;
57718;SDS011;43561;50.090;18.522;2023-08-17T22:02:29;15.38;;;12.35;;
57718;SDS011;43561;50.090;18.522;2023-08-17T22:12:31;16.40;;;12.30;;
57718;SDS011;43561;50.090;18.522;2023-08-17T22:22:33;17.65;;;13.23;;
57718;SDS011;43561;50.090;18.522;2023-08-17T22:32:35;22.35;;;13.95;;
57718;SDS011;43561;50.090;18.522;2023-08-17T22:42:37;17.95;;;13.50;;
57718;SDS011;43561;50.090;18.522;2023-08-17T22:52:39;20.17;;;15.35;;
57718;SDS011;43561;50.090;18.522;2023-08-17T23:02:41;21.23;;;15.15;;
57718;SDS011;43561;50.090;18.522;2023-08-17T23:12:43;17.33;;;13.55;;
57718;SDS011;43561;50.090;18.522;2023-08-17T23:22:45;22.13;;;16.15;;
57718;SDS011;43561;50.090;18.522;2023-08-17T23:32:47;22.60;;;14.60;;
57718;SDS011;43561;50.090;18.522;2023-08-17T23:42:49;19.33;;;13.60;;
57718;SDS011;43561;50.090;18.522;2023-08-17T23:52:51;22.60;;;16.15;;
